Flight Track Log - Related Links

Times and Time Zones

All times are in EDT time to prevent confusion due to time zone crossing. See the CES5522 flight status page for this flight to view local times or setup timezone preferences in your user account.

Time Position Orientation Groundspeed Altitude Reporting Facility
EDT Latitude Longitude Course Direction KTS MPH feet Rate Location/Type
Tue 09:34:00 AM 32.6311 121.3980 167° South  Level Estimated
Tue 09:35:00 AM 32.5378 121.4231 167° South  Level Estimated
Tue 09:36:00 AM 32.4445 121.4482 167° South  Level Estimated
Tue 09:37:00 AM 32.3511 121.4732 167° South  Level Estimated
Tue 09:38:00 AM 32.2578 121.4981 167° South  Level Estimated
Tue 09:39:00 AM 32.1645 121.5230 167° South  Level Estimated
Tue 09:40:00 AM 32.0711 121.5479 167° South  Level Estimated
Tue 09:41:00 AM 31.9778 121.5727 167° South  Level Estimated
Tue 09:42:00 AM 31.8844 121.5975 167° South  Level Estimated
Tue 09:43:00 AM 31.7911 121.6222 167° South  Level Estimated
Tue 09:44:00 AM 31.6977 121.6468 167° South  Level Estimated
Tue 09:45:00 AM 31.6044 121.6714 167° South  Level Estimated
Tue 09:46:00 AM 31.5110 121.6960 167° South  Level Estimated
Tue 09:47:00 AM 31.4176 121.7205 167° South  Level Estimated
Tue 09:48:00 AM 31.3242 121.7450 167° South  Level Estimated
Tue 09:49:00 AM 31.2309 121.7694 167° South  Level Estimated
Tue 09:50:00 AM 31.1428 121.7924 167° South  Level Estimated
Tue 09:51:00 AM 31.1428 121.7924 221° Southwest  Level Estimated
Tue 09:52:00 AM 31.1428 121.7924 221° Southwest  Level Estimated
Tue 09:53:00 AM 31.1428 121.7924 221° Southwest  Level Estimated
Tue 09:54:00 AM 31.1428 121.7924 221° Southwest  Level Estimated
Tue 09:55:00 AM 31.1428 121.7924 221° Southwest  Level Estimated
Tue 09:56:00 AM 31.1428 121.7924 221° Southwest  Level Estimated
Tue 09:57:00 AM 31.1428 121.7924 221° Southwest  Level Estimated
Tue 09:58:00 AM 31.1428 121.7924 221° Southwest  Level Estimated
Tue 09:59:00 AM 31.1428 121.7924 221° Southwest  Level Estimated
Tue 10:00:00 AM 31.1428 121.7924 221° Southwest  Level Estimated
Tue 10:01:00 AM 31.1428 121.7924 221° Southwest  Level Estimated
Tue 10:02:00 AM 31.1428 121.7924 221° Southwest  Level Estimated
Tue 10:03:00 AM 31.1428 121.7924 221° Southwest  Level Estimated
Tue 10:04:00 AM 31.1428 121.7924 221° Southwest  Level Estimated
Tue 10:05:00 AM 31.1428 121.7924 221° Southwest  Level Estimated
Tue 10:06:00 AM 31.1428 121.7924 221° Southwest  Level Estimated

Login

Don't have an account? Register now (free) for customized features, flight alerts, and more!